Hovedside
METAR-TAF:

METAR-TAF

Lufthavner :

Saint-Pierre, Réunion

breddegrad: 21-20S, lengdegrad: 055-29E, høyde over havet: 52 m

Gjeldene værobservasjon

Denne rapporten ble laget for 18 minutter siden, klokken 04:00 UTC
Vind 2 kt fra skiftende retning
Temperatur 27°C
Luftfuktighet 66%
Trykk 1012 hPa
Sikt 10 km eller mer
ingen skyer under 1500 m og ingen bygeskyer

METAR: FMEP 290400Z AUTO VRB02KT CAVOK 27/20 Q1012 BECMG 09012KT

Tid: 08:18 (04:18 UTC)

Varsel

Denne rapporten ble laget for 2 timer og 18 minutter siden, klokken 02:00 UTC
Varsel gyldig fra 29. klokken 03 UTC til 29. klokken 12 UTC
Vind 12 kt fra Øst
Sikt 10 km eller mer
Spredte skyer i en høyde av 3000 ft

TAF: FMEP 290200Z 2903/2912 09012KT 9999 SCT030

Værobservasjoner og værvarsel for over 4000 flyplasser (METAR- og TAF-rapporter).

Tilgjengelige stasjoner er representert av de røde og gule prikkene på kartet.

Hold musepekeren over prikken for å se navnet på stasjonen.

Klikk så for å se værobservasjoner og -varsler.

For å forandre kartet kan du klikke på den grønne knappen med svart kryss for å zoome inn, på den grønne knappen med strek for å zoome ut, eller på de grønne pilene for å se tilstøtende kart.


METAR-TAF: